Time;durP1;ratioP1;P1;durP2;ratioP2;P2;SDS_P1;SDS_P2;PMS_P1;PMS_P2;Temp;Humidity;BMP_temperature;BMP_pressure;BME280_temperature;BME280_humidity;BME280_pressure;Samples;Min_cycle;Max_cycle;Signal;HPM_P1;HPM_P2
2022/11/10 00:00:34;;;;;;;;;;;;;;;9.63;100.00;98851.47;4308250;33;19943;-76
2022/11/10 00:03:19;;;;;;;;;;;;;;;9.02;100.00;98851.38;4309257;33;19971;-77
2022/11/10 00:06:05;;;;;;;;;;;;;;;9.25;100.00;98855.78;4283099;33;20733;-76
2022/11/10 00:08:50;;;;;;;;;;;;;;;9.25;100.00;98863.00;4284073;33;19944;-77
2022/11/10 00:11:34;;;;;;;;;;;;;;;9.44;100.00;98853.66;4294616;33;19962;-77
2022/11/10 00:17:23;;;;;;;;;;;;;;;9.30;100.00;98862.28;4265381;33;19951;-80
2022/11/10 00:20:08;;;;;;;;;;;;;;;9.29;100.00;98866.06;4276249;33;20079;-76
2022/11/10 00:22:53;;;;;;;;;;;;;;;9.45;100.00;98855.25;4297175;33;19946;-77
2022/11/10 00:25:38;;;;;;;;;;;;;;;9.57;100.00;98854.34;4292741;33;19950;-75
2022/11/10 00:28:23;;;;;;;;;;;;;;;9.27;100.00;98864.41;4296227;33;19936;-77
2022/11/10 00:32:04;;;;;;;40.47;15.45;;;;;;;9.02;100.00;98846.00;4436874;32;20181;-76
2022/11/10 00:34:49;;;;;;;31.83;14.93;;;;;;;9.02;100.00;98846.00;4421417;32;20057;-77
2022/11/10 00:37:34;;;;;;;46.83;18.77;;;;;;;8.88;100.00;98812.47;4419835;32;20038;-77
2022/11/10 00:40:19;;;;;;;44.10;19.92;;;;;;;9.68;100.00;98845.38;4421880;32;20356;-77
2022/11/10 00:43:04;;;;;;;42.70;19.65;;;;;;;10.00;100.00;98818.63;4423751;32;20087;-76
2022/11/10 00:45:49;;;;;;;38.70;18.98;;;;;;;10.04;100.00;98818.94;4380345;32;20059;-76
2022/11/10 00:48:34;;;;;;;48.72;20.92;;;;;;;10.45;100.00;98857.09;4387748;32;20040;-78
2022/11/10 00:51:25;;;;;;;44.83;19.98;;;;;;;10.33;100.00;98842.97;4379909;32;20180;-76
2022/11/10 00:54:09;;;;;;;42.90;19.00;;;;;;;10.49;100.00;98854.72;4380579;32;20423;-76
2022/11/10 00:56:55;;;;;;;41.65;19.65;;;;;;;10.35;100.00;98840.81;4379482;32;20039;-76
2022/11/10 00:59:39;;;;;;;39.10;18.98;;;;;;;10.22;100.00;98841.19;4350425;33;20044;-76
2022/11/10 01:02:24;;;;;;;38.35;17.77;;;;;;;9.70;100.00;98800.25;4321577;33;20243;-77
2022/11/10 01:05:09;;;;;;;42.80;18.33;;;;;;;9.26;100.00;98792.13;4318091;33;20032;-77
2022/11/10 01:07:56;;;;;;;41.42;18.42;;;;;;;10.11;100.00;98857.22;4321447;33;20044;-77
2022/11/10 01:10:41;;;;;;;41.40;17.37;;;;;;;10.24;100.00;98860.59;4292223;33;20420;-77
2022/11/10 01:13:26;;;;;;;41.37;19.00;;;;;;;10.17;100.00;98850.81;4292454;33;20403;-77
2022/11/10 01:16:14;;;;;;;42.50;18.25;;;;;;;10.06;100.00;98824.88;4291723;33;20055;-77
2022/11/10 01:19:01;;;;;;;45.22;18.08;;;;;;;10.12;100.00;98853.47;4299421;33;20065;-77
2022/11/10 01:21:45;;;;;;;41.75;19.62;;;;;;;10.18;100.00;98851.66;4310403;33;20033;-77
2022/11/10 01:24:31;;;;;;;39.13;18.45;;;;;;;10.11;100.00;98857.22;4334338;33;20060;-75
2022/11/10 01:27:15;;;;;;;42.70;18.25;;;;;;;9.97;100.00;98846.03;4331250;33;20037;-80
2022/11/10 01:30:01;;;;;;;46.30;18.08;;;;;;;9.97;100.00;98850.56;4324175;33;20078;-78
2022/11/10 01:32:45;;;;;;;38.05;17.45;;;;;;;9.94;100.00;98851.06;4344878;32;20028;-77
2022/11/10 01:35:37;;;;;;;42.35;18.35;;;;;;;10.03;100.00;98854.97;4365091;32;20075;-77
2022/11/10 01:38:22;;;;;;;45.65;18.23;;;;;;;9.62;100.00;98824.84;4365297;32;20381;-76
2022/11/10 01:41:09;;;;;;;40.12;17.52;;;;;;;9.81;100.00;98863.00;4365239;32;20432;-76
2022/11/10 01:44:11;;;;;;;49.67;19.10;;;;;;;9.77;100.00;98829.63;4352886;32;20070;-76
2022/11/10 01:46:56;;;;;;;42.28;18.17;;;;;;;10.21;100.00;98866.47;4356043;32;20141;-77
2022/11/10 01:49:41;;;;;;;41.22;17.40;;;;;;;9.88;100.00;98857.47;4369030;32;20323;-76
2022/11/10 01:52:26;;;;;;;39.83;17.30;;;;;;;9.53;100.00;98834.41;4375350;32;20449;-77
2022/11/10 01:55:11;;;;;;;41.17;18.95;;;;;;;9.40;100.00;98814.88;4395165;32;20028;-76
2022/11/10 01:57:56;;;;;;;42.97;17.92;;;;;;;9.49;100.00;98830.59;4415947;32;20247;-77
2022/11/10 02:00:42;;;;;;;43.47;19.73;;;;;;;9.81;100.00;98861.16;4397558;32;20045;-78
2022/11/10 02:03:45;;;;;;;45.30;17.17;;;;;;;9.92;100.00;98863.97;4384949;32;20064;-78
2022/11/10 02:06:42;;;;;;;39.33;18.15;;;;;;;10.12;100.00;98872.28;4399575;32;20084;-78
2022/11/10 02:09:27;;;;;;;33.10;17.83;;;;;;;10.03;100.00;98868.41;4354104;32;20531;-77
2022/11/10 02:12:13;;;;;;;43.33;18.02;;;;;;;9.65;100.00;98800.16;4354646;32;20040;-78
2022/11/10 02:14:58;;;;;;;40.30;18.42;;;;;;;9.77;100.00;98841.19;4353370;32;20209;-76
2022/11/10 02:17:45;;;;;;;43.50;19.37;;;;;;;9.93;100.00;98882.53;4354738;32;20040;-77
2022/11/10 02:20:30;;;;;;;40.45;19.60;;;;;;;9.94;100.00;98888.72;4354423;32;20051;-76
2022/11/10 02:23:30;;;;;;;44.35;17.73;;;;;;;9.66;100.00;98831.38;4353638;32;20057;-78
2022/11/10 02:26:22;;;;;;;40.20;18.62;;;;;;;9.84;100.00;98867.09;4354178;32;20035;-77
2022/11/10 02:29:06;;;;;;;46.40;19.33;;;;;;;9.64;100.00;98879.19;4353939;32;20071;-78
2022/11/10 02:31:51;;;;;;;41.05;18.30;;;;;;;9.55;100.00;98859.16;4373004;32;20047;-77
2022/11/10 02:34:36;;;;;;;38.97;17.90;;;;;;;9.77;100.00;98900.34;4384459;32;20079;-77
2022/11/10 02:37:21;;;;;;;41.72;18.35;;;;;;;9.61;100.00;98874.31;4381768;32;20059;-77
2022/11/10 02:40:06;;;;;;;39.13;18.20;;;;;;;10.03;100.00;98914.13;4398311;32;20064;-78
2022/11/10 02:42:51;;;;;;;40.47;18.80;;;;;;;9.80;100.00;98883.72;4415409;32;20051;-78
2022/11/10 02:45:40;;;;;;;41.25;16.92;;;;;;;10.09;100.00;98901.59;4403463;32;20647;-77
2022/11/10 02:48:25;;;;;;;45.28;19.67;;;;;;;9.87;100.00;98921.19;4416946;32;20075;-78
2022/11/10 02:51:10;;;;;;;42.88;18.12;;;;;;;9.96;100.00;98886.63;4416736;32;20043;-77
2022/11/10 02:53:55;;;;;;;42.33;18.33;;;;;;;9.80;100.00;98910.59;4415819;32;20101;-77
2022/11/10 02:56:40;;;;;;;42.08;17.42;;;;;;;9.81;100.00;98928.38;4415061;32;20341;-77
2022/11/10 02:59:25;;;;;;;39.25;17.00;;;;;;;9.74;100.00;98882.00;4416114;32;20054;-76
2022/11/10 03:02:10;;;;;;;42.28;19.23;;;;;;;9.53;100.00;98850.53;4398806;32;20073;-78
2022/11/10 03:04:55;;;;;;;41.00;18.98;;;;;;;10.09;100.00;98885.44;4399222;32;20127;-78
2022/11/10 03:07:40;;;;;;;40.35;17.75;;;;;;;10.20;100.00;98929.44;4398472;32;20027;-77
2022/11/10 03:10:25;;;;;;;37.67;18.65;;;;;;;10.16;100.00;98919.16;4397614;32;20458;-77
2022/11/10 03:13:10;;;;;;;39.85;17.20;;;;;;;10.01;100.00;98927.03;4388761;32;20425;-77
2022/11/10 03:15:56;;;;;;;37.42;19.00;;;;;;;10.23;100.00;98926.22;4365774;32;20101;-77
2022/11/10 03:18:40;;;;;;;39.58;16.85;;;;;;;10.16;100.00;98929.94;4368646;32;20040;-78
2022/11/10 03:21:25;;;;;;;38.15;17.75;;;;;;;9.87;100.00;98896.19;4366962;32;20349;-77
2022/11/10 03:24:10;;;;;;;42.90;15.75;;;;;;;9.75;100.00;98897.09;4339252;33;20025;-77
2022/11/10 03:27:02;;;;;;;39.45;16.80;;;;;;;10.09;100.00;98934.66;4337708;33;20058;-77
2022/11/10 03:29:47;;;;;;;41.85;16.90;;;;;;;10.04;100.00;98945.38;4337248;33;20036;-77
2022/11/10 03:32:32;;;;;;;39.03;16.75;;;;;;;9.99;100.00;98945.31;4346192;32;20408;-77
2022/11/10 03:35:17;;;;;;;40.45;18.30;;;;;;;9.82;100.00;98913.84;4368542;32;20411;-77
2022/11/10 03:38:02;;;;;;;38.70;17.70;;;;;;;9.98;100.00;98911.37;4337796;33;20174;-78
2022/11/10 03:40:49;;;;;;;42.45;17.12;;;;;;;10.18;100.00;98949.31;4341613;32;20079;-78
2022/11/10 03:43:34;;;;;;;34.58;16.55;;;;;;;10.44;100.00;98946.97;4338536;33;20052;-78
2022/11/10 03:46:19;;;;;;;40.42;16.48;;;;;;;9.55;100.00;98843.03;4342940;32;20036;-78
2022/11/10 03:49:04;;;;;;;41.95;19.55;;;;;;;9.99;100.00;98907.66;4351775;32;20074;-78
2022/11/10 03:51:49;;;;;;;44.17;18.12;;;;;;;10.34;100.00;98958.44;4353162;32;20361;-76
2022/11/10 03:54:34;;;;;;;42.28;18.33;;;;;;;10.47;100.00;98957.25;4358017;32;20070;-78
2022/11/10 03:57:19;;;;;;;52.47;19.25;;;;;;;10.40;100.00;98923.50;4368578;32;20031;-79
2022/11/10 04:00:05;;;;;;;45.38;19.30;;;;;;;10.40;100.00;98956.59;4371190;32;20077;-78
2022/11/10 04:02:50;;;;;;;42.80;19.30;;;;;;;10.46;100.00;98965.56;4381958;32;20027;-77
2022/11/10 04:17:51;;;;;;;45.05;18.23;;;;;;;9.96;100.00;98951.19;4414881;32;20053;-77
2022/11/10 04:20:35;;;;;;;43.20;19.45;;;;;;;10.20;100.00;98977.88;4415520;32;20030;-77
2022/11/10 04:23:35;;;;;;;43.78;19.98;;;;;;;10.16;100.00;98981.06;4415439;32;20116;-77
2022/11/10 04:26:28;;;;;;;45.72;19.67;;;;;;;10.36;100.00;98977.03;4414640;32;20031;-76
2022/11/10 04:29:20;;;;;;;45.42;18.65;;;;;;;9.82;100.00;98943.44;4414746;32;20061;-77
2022/11/10 04:32:05;;;;;;;42.75;16.15;;;;;;;10.07;100.00;98985.22;4414942;32;20042;-77
2022/11/10 04:34:50;;;;;;;40.33;18.73;;;;;;;9.81;100.00;98979.47;4415230;32;20050;-77
2022/11/10 04:37:35;;;;;;;44.60;18.30;;;;;;;9.77;100.00;98983.69;4395653;32;20035;-78
2022/11/10 04:40:20;;;;;;;41.80;17.65;;;;;;;10.14;100.00;98996.59;4382866;32;20061;-78
2022/11/10 04:43:05;;;;;;;47.90;20.08;;;;;;;9.81;100.00;98992.91;4396314;32;20030;-77
2022/11/10 04:45:50;;;;;;;43.97;19.27;;;;;;;10.00;100.00;98990.78;4397337;32;20057;-79
2022/11/10 04:48:35;;;;;;;44.03;18.62;;;;;;;9.93;100.00;99000.88;4394909;32;20039;-78
2022/11/10 04:51:23;;;;;;;40.83;18.50;;;;;;;9.50;100.00;98974.66;4388732;32;20459;-78
2022/11/10 04:54:10;;;;;;;48.97;19.12;;;;;;;9.78;100.00;98997.94;4397616;32;20462;-77
2022/11/10 04:56:55;;;;;;;49.15;18.25;;;;;;;9.95;100.00;98965.66;4397937;32;20426;-77
2022/11/10 04:59:46;;;;;;;47.08;19.30;;;;;;;10.05;100.00;99003.50;4397189;32;20047;-77
2022/11/10 05:02:31;;;;;;;46.03;19.12;;;;;;;10.01;100.00;99005.03;4393887;32;20035;-77
2022/11/10 05:05:15;;;;;;;43.92;18.67;;;;;;;10.09;100.00;99004.63;4382763;32;20193;-77
2022/11/10 05:08:03;;;;;;;47.33;18.65;;;;;;;10.20;100.00;99010.97;4388762;32;20423;-78
2022/11/10 05:10:47;;;;;;;42.33;17.73;;;;;;;10.10;100.00;98995.50;4399848;32;20070;-78
2022/11/10 05:13:33;;;;;;;44.15;19.50;;;;;;;9.73;100.00;98960.22;4400039;32;20042;-79
2022/11/10 05:16:18;;;;;;;45.53;19.62;;;;;;;10.20;100.00;98983.25;4401997;32;20186;-79
2022/11/10 05:19:03;;;;;;;44.75;19.90;;;;;;;10.26;100.00;99009.13;4417493;32;20495;-76
2022/11/10 05:21:48;;;;;;;48.53;19.17;;;;;;;9.93;100.00;98978.56;4385666;32;20035;-78
2022/11/10 05:24:33;;;;;;;39.20;16.12;;;;;;;10.11;100.00;99020.50;4384907;32;20065;-77
2022/11/10 05:27:17;;;;;;;44.53;18.40;;;;;;;9.73;100.00;98985.28;4369700;32;20497;-76
2022/11/10 05:30:03;;;;;;;40.00;17.50;;;;;;;10.08;100.00;99037.94;4369789;32;20047;-77
2022/11/10 05:32:48;;;;;;;45.30;18.23;;;;;;;10.12;100.00;99030.22;4375489;32;20028;-77
2022/11/10 05:35:33;;;;;;;52.00;18.67;;;;;;;9.81;100.00;99035.94;4385425;32;20051;-77
2022/11/10 05:38:18;;;;;;;45.90;19.05;;;;;;;9.95;100.00;99004.13;4385604;32;20081;-77
2022/11/10 05:41:03;;;;;;;50.12;19.50;;;;;;;10.21;100.00;99038.69;4369294;32;20043;-75
2022/11/10 05:43:48;;;;;;;47.20;19.42;;;;;;;10.16;100.00;99018.72;4369991;32;20406;-77
2022/11/10 05:46:33;;;;;;;40.72;16.50;;;;;;;10.54;100.00;99054.78;4368646;32;20039;-78
2022/11/10 05:49:17;;;;;;;44.67;17.85;;;;;;;10.17;100.00;99049.94;4370192;32;20036;-77
2022/11/10 05:52:02;;;;;;;42.67;17.85;;;;;;;10.25;100.00;99061.34;4379626;32;20057;-77
2022/11/10 05:54:47;;;;;;;43.63;18.40;;;;;;;10.22;100.00;99068.03;4406379;32;20027;-77
2022/11/10 05:57:32;;;;;;;43.42;18.75;;;;;;;10.36;100.00;99063.16;4417466;32;20039;-79
2022/11/10 06:00:22;;;;;;;41.63;17.00;;;;;;;10.21;100.00;99038.69;4417389;32;20477;-78
2022/11/10 06:03:17;;;;;;;44.72;17.67;;;;;;;10.47;100.00;99064.94;4417431;32;20076;-79
2022/11/10 06:06:02;;;;;;;36.50;16.77;;;;;;;10.54;100.00;99097.84;4402439;32;20059;-78
2022/11/10 06:08:48;;;;;;;40.33;18.85;;;;;;;10.36;100.00;99055.09;4401468;32;20082;-77
2022/11/10 06:11:32;;;;;;;37.30;17.08;;;;;;;10.48;100.00;99092.66;4402012;32;20442;-78
2022/11/10 06:14:17;;;;;;;41.58;17.30;;;;;;;10.10;100.00;99064.59;4403845;32;20085;-78
2022/11/10 06:17:02;;;;;;;35.92;16.95;;;;;;;10.44;100.00;99065.41;4402215;32;20034;-77
2022/11/10 06:19:47;;;;;;;42.95;18.23;;;;;;;10.08;100.00;99080.19;4408253;32;20419;-77
2022/11/10 06:22:32;;;;;;;39.95;16.55;;;;;;;10.24;100.00;99078.53;4399853;32;20080;-78
2022/11/10 06:25:17;;;;;;;37.47;17.20;;;;;;;9.87;100.00;99070.97;4400088;32;20108;-78
2022/11/10 06:28:03;;;;;;;38.03;16.35;;;;;;;10.12;100.00;99122.50;4384861;32;20039;-78
2022/11/10 06:30:48;;;;;;;36.33;16.37;;;;;;;9.77;100.00;99039.38;4383735;32;20061;-76
2022/11/10 06:33:33;;;;;;;38.25;18.05;;;;;;;10.62;100.00;99117.34;4392308;32;20076;-78
2022/11/10 06:36:18;;;;;;;48.97;19.48;;;;;;;10.05;100.00;99086.06;4398053;32;20035;-78
2022/11/10 06:39:03;;;;;;;47.30;20.23;;;;;;;10.66;100.00;99121.19;4394690;32;20215;-77
2022/11/10 06:41:48;;;;;;;35.08;15.85;;;;;;;10.28;100.00;99096.66;4390487;32;20039;-78
2022/11/10 06:44:33;;;;;;;40.97;17.35;;;;;;;10.04;100.00;99098.69;4398521;32;20068;-76
2022/11/10 06:47:17;;;;;;;44.22;18.55;;;;;;;10.60;100.00;99146.41;4390726;32;20087;-79
2022/11/10 06:50:02;;;;;;;34.15;16.75;;;;;;;10.42;100.00;99134.84;4384381;32;20043;-83
2022/11/10 06:52:55;;;;;;;41.95;18.20;;;;;;;10.23;100.00;99122.66;4389206;32;20104;-80
2022/11/10 06:55:40;;;;;;;;;;;;;;;10.67;100.00;99165.91;4415145;32;20424;-82
2022/11/10 06:58:25;;;;;;;34.65;15.93;;;;;;;10.64;100.00;99161.00;4414370;32;19934;-83
2022/11/10 07:01:09;;;;;;;38.25;16.90;;;;;;;10.35;100.00;99136.88;4415033;32;20035;-79
2022/11/10 07:03:55;;;;;;;44.97;17.95;;;;;;;10.74;100.00;99169.25;4416822;32;20035;-80
2022/11/10 07:06:39;;;;;;;40.78;17.83;;;;;;;10.70;100.00;99138.47;4417096;32;20450;-80
2022/11/10 07:09:24;;;;;;;41.53;16.83;;;;;;;10.84;100.00;99182.84;4416630;32;20064;-78
2022/11/10 07:12:09;;;;;;;37.00;15.50;;;;;;;10.72;100.00;99147.09;4416562;32;20218;-82
2022/11/10 07:14:54;;;;;;;46.80;16.83;;;;;;;10.53;100.00;99152.78;4413285;32;20115;-81
2022/11/10 07:17:40;;;;;;;36.42;15.88;;;;;;;10.60;100.00;99170.66;4401957;32;20038;-80
2022/11/10 07:20:27;;;;;;;31.92;15.35;;;;;;;10.76;100.00;99156.34;4414526;32;20093;-77
2022/11/10 07:23:11;;;;;;;37.65;15.73;;;;;;;10.49;100.00;99165.09;4409757;32;20391;-80
2022/11/10 07:25:58;;;;;;;35.38;16.23;;;;;;;10.63;100.00;99186.31;4415635;32;20092;-78
2022/11/10 07:28:43;;;;;;;39.72;17.33;;;;;;;10.62;100.00;99195.44;4389507;32;20027;-80
2022/11/10 07:31:28;;;;;;;30.35;14.87;;;;;;;10.94;100.00;99165.19;4381213;32;20090;-80
2022/11/10 07:34:12;;;;;;;30.33;14.73;;;;;;;10.56;100.00;99147.97;4398866;32;20058;-79
2022/11/10 07:36:58;;;;;;;34.35;14.70;;;;;;;10.95;100.00;99209.94;4395117;32;20065;-77
2022/11/10 07:39:42;;;;;;;32.10;15.18;;;;;;;11.04;100.00;99181.50;4394810;32;20043;-79
2022/11/10 07:42:27;;;;;;;30.00;14.90;;;;;;;10.96;100.00;99206.16;4395869;32;20115;-79
2022/11/10 07:45:12;;;;;;;33.85;15.48;;;;;;;10.82;100.00;99187.66;4397304;32;20032;-80
2022/11/10 07:47:59;;;;;;;27.70;15.40;;;;;;;11.15;100.00;99223.69;4388582;32;20057;-81
2022/11/10 07:50:44;;;;;;;31.67;14.45;;;;;;;11.45;100.00;99225.16;4384980;32;20069;-79
2022/11/10 07:53:29;;;;;;;37.35;16.12;;;;;;;10.66;100.00;99177.75;4383637;32;20101;-80
2022/11/10 07:56:14;;;;;;;30.85;16.33;;;;;;;11.21;100.00;99233.47;4389222;32;20093;-79
2022/11/10 07:58:59;;;;;;;28.60;13.38;;;;;;;11.11;100.00;99241.44;4397061;32;20057;-76
2022/11/10 08:01:44;;;;;;;33.65;15.48;;;;;;;11.06;100.00;99242.16;4376599;32;20047;-79
2022/11/10 08:04:30;;;;;;;29.83;13.20;;;;;;;11.38;100.00;99240.72;4380013;32;20035;-78
2022/11/10 08:07:14;;;;;;;32.50;13.23;;;;;;;10.94;100.00;99260.28;4382159;32;20047;-79
2022/11/10 08:10:00;;;;;;;37.00;15.63;;;;;;;10.57;100.00;99208.84;4383049;32;20096;-78
2022/11/10 08:12:44;;;;;;;32.67;15.13;;;;;;;10.99;100.00;99233.44;4368037;32;20070;-76
2022/11/10 08:15:31;;;;;;;35.63;14.55;;;;;;;11.17;100.00;99235.03;4366743;32;20078;-76
2022/11/10 08:18:21;;;;;;;24.15;13.00;;;;;;;11.09;100.00;99184.28;4362064;32;20039;-77
2022/11/10 08:21:06;;;;;;;24.92;12.18;;;;;;;11.40;100.00;99271.72;4364260;32;20121;-78
2022/11/10 08:23:51;;;;;;;27.95;14.75;;;;;;;11.05;100.00;99253.19;4353719;32;20445;-78
2022/11/10 08:26:37;;;;;;;31.98;14.63;;;;;;;11.03;100.00;99247.25;4356771;32;20039;-76
2022/11/10 08:29:21;;;;;;;28.60;13.80;;;;;;;11.23;100.00;99255.63;4350204;32;20040;-79
2022/11/10 08:32:06;;;;;;;26.23;14.05;;;;;;;11.30;100.00;99265.41;4356886;32;20073;-77
2022/11/10 08:34:51;;;;;;;31.30;14.35;;;;;;;11.52;100.00;99260.84;4368165;32;20039;-78
2022/11/10 08:37:36;;;;;;;23.65;12.32;;;;;;;11.08;100.00;99268.87;4336782;33;20040;-75
2022/11/10 08:40:26;;;;;;;39.55;14.48;;;;;;;10.92;100.00;99269.72;4308898;33;20026;-78
2022/11/10 08:43:12;;;;;;;23.55;11.20;;;;;;;11.01;100.00;99279.81;4318650;33;20052;-78
2022/11/10 08:45:57;;;;;;;30.60;14.07;;;;;;;10.96;100.00;99297.78;4325594;33;20502;-78
2022/11/10 08:48:42;;;;;;;25.52;12.75;;;;;;;11.27;100.00;99321.44;4320402;33;20205;-77
2022/11/10 08:51:26;;;;;;;27.25;14.70;;;;;;;10.81;100.00;99269.53;4320864;33;20074;-78
2022/11/10 08:54:11;;;;;;;30.08;14.00;;;;;;;11.18;100.00;99289.75;4317744;33;20727;-75
2022/11/10 08:56:56;;;;;;;27.17;12.73;;;;;;;11.31;100.00;99310.16;4306528;33;20466;-77
2022/11/10 08:59:42;;;;;;;29.92;14.87;;;;;;;11.22;100.00;99334.84;4275091;33;20139;-77
2022/11/10 09:02:26;;;;;;;35.13;15.00;;;;;;;11.37;100.00;99309.16;4288726;33;20046;-79
2022/11/10 09:05:11;;;;;;;30.75;13.15;;;;;;;11.53;100.00;99313.69;4280280;33;20119;-78
2022/11/10 09:07:56;;;;;;;27.55;14.73;;;;;;;11.47;100.00;99341.66;4283629;33;20067;-77
2022/11/10 09:10:47;;;;;;;27.13;13.05;;;;;;;11.78;100.00;99315.13;4291390;33;20079;-77
2022/11/10 09:13:31;;;;;;;39.75;13.73;;;;;;;11.80;100.00;99354.25;4295315;33;20051;-79
2022/11/10 09:16:17;;;;;;;27.35;14.23;;;;;;;12.13;100.00;99344.44;4295755;33;20139;-76
2022/11/10 09:19:02;;;;;;;30.37;13.68;;;;;;;11.79;100.00;99311.34;4289920;33;20058;-81
2022/11/10 09:21:47;;;;;;;26.23;13.25;;;;;;;11.36;100.00;99296.75;4301577;33;20074;-80
2022/11/10 09:24:32;;;;;;;31.77;13.88;;;;;;;12.09;100.00;99348.69;4311664;33;20059;-82
2022/11/10 09:27:17;;;;;;;22.45;12.73;;;;;;;12.12;100.00;99336.59;4315940;33;20176;-79
2022/11/10 09:30:04;;;;;;;26.35;12.37;;;;;;;12.33;100.00;99370.88;4320619;33;20053;-83
2022/11/10 09:32:54;;;;;;;17.10;10.40;;;;;;;12.19;100.00;99369.63;4307799;33;20052;-81
2022/11/10 09:35:39;;;;;;;29.20;12.52;;;;;;;12.12;100.00;99366.28;4311938;33;20413;-82
2022/11/10 09:38:24;;;;;;;22.23;11.12;;;;;;;12.02;100.00;99333.78;4323054;33;20083;-81
2022/11/10 09:41:14;;;;;;;28.25;13.00;;;;;;;12.10;100.00;99344.13;4321875;33;20032;-82
2022/11/10 09:44:09;;;;;;;21.05;11.07;;;;;;;12.64;100.00;99375.78;4323218;33;20033;-80
2022/11/10 09:47:01;;;;;;;30.95;12.63;;;;;;;12.41;100.00;99382.28;4325995;33;20100;-82
2022/11/10 09:49:55;;;;;;;22.25;11.68;;;;;;;12.50;100.00;99354.56;4325403;33;20048;-81
2022/11/10 09:52:41;;;;;;;18.92;11.35;;;;;;;12.68;100.00;99379.59;4316454;33;20180;-78
2022/11/10 09:55:39;;;;;;;21.55;10.98;;;;;;;12.29;100.00;99353.53;4311235;33;20041;-81
2022/11/10 09:58:40;;;;;;;22.75;11.32;;;;;;;11.72;100.00;99362.78;4329145;33;20043;-83
2022/11/10 10:01:37;;;;;;;23.15;12.35;;;;;;;12.23;100.00;99375.31;4359223;32;20039;-79
2022/11/10 10:04:47;;;;;;;26.77;13.85;;;;;;;12.20;100.00;99357.75;4339817;33;20028;-83
2022/11/10 10:07:50;;;;;;;24.05;12.55;;;;;;;12.50;100.00;99362.66;4340622;33;20037;-81
2022/11/10 10:10:40;;;;;;;24.30;13.25;;;;;;;12.04;100.00;99396.41;4324202;33;20064;-80
2022/11/10 10:13:37;;;;;;;21.08;12.52;;;;;;;12.41;100.00;99409.28;4325331;33;20058;-81
2022/11/10 10:16:59;;;;;;;30.65;12.60;;;;;;;12.39;100.00;99406.03;4296427;33;20063;-80
2022/11/10 10:19:47;;;;;;;37.28;14.93;;;;;;;12.61;100.00;99411.41;4303216;33;20634;-80
2022/11/10 10:22:56;;;;;;;27.40;13.43;;;;;;;12.20;100.00;99379.34;4338642;33;20028;-78
2022/11/10 10:25:44;;;;;;;25.92;12.57;;;;;;;12.24;100.00;99379.62;4340209;33;20032;-81
2022/11/10 10:28:43;;;;;;;25.88;13.55;;;;;;;12.29;100.00;99418.31;4296859;33;20042;-81
2022/11/10 10:31:42;;;;;;;34.42;13.68;;;;;;;12.20;100.00;99382.03;4294151;33;20156;-77
2022/11/10 10:34:30;;;;;;;24.52;13.07;;;;;;;12.21;100.00;99388.28;4298126;33;20041;-79
2022/11/10 10:37:25;;;;;;;22.87;13.60;;;;;;;12.83;100.00;99422.19;4310264;33;20028;-78
2022/11/10 10:40:16;;;;;;;26.85;13.82;;;;;;;12.84;100.00;99424.63;4323929;33;20078;-77
2022/11/10 10:43:02;;;;;;;21.50;11.87;;;;;;;12.39;100.00;99431.13;4325471;33;20033;-79
2022/11/10 10:46:10;;;;;;;17.35;11.98;;;;;;;12.58;100.00;99426.22;4327445;33;20084;-81
2022/11/10 10:49:13;;;;;;;20.08;12.30;;;;;;;12.62;100.00;99400.34;4368851;32;20032;-79
2022/11/10 10:52:12;;;;;;;18.35;11.43;;;;;;;12.78;100.00;99425.62;4371676;32;20353;-80
2022/11/10 10:55:00;;;;;;;17.48;10.90;;;;;;;12.40;100.00;99392.28;4354520;32;20487;-80
2022/11/10 10:57:58;;;;;;;18.08;11.00;;;;;;;12.45;100.00;99426.62;4367719;32;20117;-80
2022/11/10 11:00:45;;;;;;;26.25;10.90;;;;;;;12.19;100.00;99412.81;4409603;32;20069;-79
2022/11/10 11:03:39;;;;;;;19.30;11.55;;;;;;;12.64;100.00;99419.81;4398612;32;20426;-81
2022/11/10 11:06:33;;;;;;;22.98;12.25;;;;;;;12.90;100.00;99428.19;4401463;32;20074;-81
2022/11/10 11:09:29;;;;;;;17.92;9.73;;;;;;;12.82;100.00;99425.94;4404425;32;20082;-80
2022/11/10 11:12:16;;;;;;;18.37;11.20;;;;;;;12.42;100.00;99444.13;4404597;32;20042;-79
2022/11/10 11:15:20;;;;;;;24.80;12.18;;;;;;;12.87;100.00;99434.09;4404510;32;20396;-81
2022/11/10 11:18:16;;;;;;;15.65;9.50;;;;;;;12.57;100.00;99438.09;4405541;32;20055;-79
2022/11/10 11:21:08;;;;;;;20.80;10.73;;;;;;;12.59;100.00;99441.38;4405246;32;20187;-79
2022/11/10 11:24:14;;;;;;;22.55;11.18;;;;;;;12.64;100.00;99440.62;4401595;32;20054;-79
2022/11/10 11:27:02;;;;;;;15.48;10.20;;;;;;;12.82;100.00;99447.56;4410905;32;20366;-80
2022/11/10 11:30:12;;;;;;;19.10;10.13;;;;;;;12.77;100.00;99444.81;4409379;32;20145;-79
2022/11/10 11:33:14;;;;;;;16.62;10.40;;;;;;;12.98;100.00;99441.22;4404233;32;20109;-79
2022/11/10 11:36:21;;;;;;;19.42;9.93;;;;;;;12.77;100.00;99423.19;4404084;32;20038;-81
2022/11/10 11:39:15;;;;;;;17.25;9.63;;;;;;;12.97;100.00;99450.44;4402374;32;20043;-82
2022/11/10 11:42:16;;;;;;;19.27;9.45;;;;;;;12.29;100.00;99423.72;4402269;32;20068;-78
2022/11/10 11:45:22;;;;;;;14.87;9.68;;;;;;;12.95;100.00;99444.44;4397880;32;20474;-76
2022/11/10 11:48:38;;;;;;;19.45;10.13;;;;;;;13.03;100.00;99443.97;4398663;32;20402;-75
2022/11/10 11:51:52;;;;;;;17.00;9.93;;;;;;;13.30;100.00;99453.16;4398841;32;20030;-77
2022/11/10 11:54:55;;;;;;;16.52;8.77;;;;;;;13.08;100.00;99454.03;4394867;32;20268;-78
2022/11/10 11:57:49;;;;;;;15.90;8.82;;;;;;;13.40;100.00;99445.97;4390558;32;20040;-77
2022/11/10 12:00:58;;;;;;;15.95;8.52;;;;;;;12.92;100.00;99458.47;4375997;32;20057;-76
2022/11/10 12:04:14;;;;;;;12.95;8.68;;;;;;;12.96;100.00;99448.78;4368360;32;20057;-77
2022/11/10 12:07:13;;;;;;;15.02;9.50;;;;;;;12.68;100.00;99458.78;4366796;32;20057;-77
2022/11/10 12:10:26;;;;;;;16.30;9.13;;;;;;;12.91;100.00;99462.25;4366857;32;20061;-77
2022/11/10 12:13:23;;;;;;;16.98;7.90;;;;;;;12.77;100.00;99423.19;4377964;32;20061;-78
2022/11/10 12:16:16;;;;;;;21.08;11.80;;;;;;;12.73;100.00;99430.97;4391641;32;20035;-78
2022/11/10 12:19:19;;;;;;;15.20;10.55;;;;;;;13.26;100.00;99477.19;4399648;32;20042;-77
2022/11/10 12:22:16;;;;;;;9.38;7.57;;;;;;;12.90;100.00;99466.00;4402305;32;20092;-78
2022/11/10 12:25:20;;;;;;;12.25;8.63;;;;;;;12.62;100.00;99483.25;4400576;32;20054;-76
2022/11/10 12:28:17;;;;;;;17.15;8.18;;;;;;;13.11;100.00;99479.75;4400993;32;20087;-76
2022/11/10 12:31:09;;;;;;;25.80;8.95;;;;;;;12.57;100.00;99461.59;4410588;32;20371;-77
2022/11/10 12:34:04;;;;;;;11.00;7.80;;;;;;;13.19;100.00;99474.66;4415681;32;20348;-78
2022/11/10 12:36:51;;;;;;;17.02;7.55;;;;;;;13.29;100.00;99449.63;4386950;32;20057;-77
2022/11/10 12:39:47;;;;;;;11.70;7.47;;;;;;;13.66;100.00;99489.47;4396005;32;20032;-76
2022/11/10 12:42:36;;;;;;;11.35;6.95;;;;;;;14.04;100.00;99490.28;4392068;32;20043;-78
2022/11/10 12:45:27;;;;;;;7.82;4.80;;;;;;;13.64;100.00;99480.75;4350686;32;20048;-76
2022/11/10 12:48:13;;;;;;;16.45;6.50;;;;;;;13.15;100.00;99472.75;4339528;33;20060;-77
2022/11/10 12:51:09;;;;;;;17.83;6.80;;;;;;;13.34;100.00;99449.72;4338541;33;20028;-76
2022/11/10 12:53:54;;;;;;;8.88;6.18;;;;;;;13.42;100.00;99484.41;4338148;33;20058;-78
2022/11/10 12:56:49;;;;;;;14.43;6.22;;;;;;;13.55;100.00;99520.22;4345013;33;20407;-77
2022/11/10 12:59:38;;;;;;;11.98;6.55;;;;;;;12.92;100.00;99485.47;4345317;33;20077;-78
2022/11/10 13:02:37;;;;;;;9.30;5.10;;;;;;;13.30;100.00;99516.16;4342799;33;20050;-77
2022/11/10 13:05:35;;;;;;;12.50;6.32;;;;;;;12.66;100.00;99492.50;4351282;33;20040;-76
2022/11/10 13:08:28;;;;;;;10.32;5.62;;;;;;;12.44;100.00;99492.50;4362340;32;20069;-77